Time;durP1;ratioP1;P1;durP2;ratioP2;P2;SDS_P1;SDS_P2;PMS_P1;PMS_P2;Temp;Humidity;BMP_temperature;BMP_pressure;BME280_temperature;BME280_humidity;BME280_pressure;Samples;Min_cycle;Max_cycle;Signal;HPM_P1;HPM_P2
2021/11/09 00:00:14;;;;;;;1.90;1.70;;;;;;;15.48;50.74;99974.19;1773110;79;21049;-65
2021/11/09 00:02:43;;;;;;;2.00;1.80;;;;;;;15.49;50.74;99980.37;1775135;79;21547;-65
2021/11/09 00:05:12;;;;;;;2.62;1.98;;;;;;;15.48;50.74;99976.05;1768779;79;21010;-66
2021/11/09 00:07:45;;;;;;;2.15;1.95;;;;;;;15.47;50.74;99985.09;1760213;79;22011;-65
2021/11/09 00:10:07;;;;;;;2.10;1.90;;;;;;;15.48;50.74;99989.44;1752064;79;21037;-66
2021/11/09 00:12:40;;;;;;;2.17;2.08;;;;;;;15.46;50.74;99989.62;1785851;79;21093;-66
2021/11/09 00:15:10;;;;;;;2.15;2.05;;;;;;;15.45;50.73;99981.30;1785045;79;21034;-65
2021/11/09 00:17:37;;;;;;;1.90;1.80;;;;;;;15.45;50.74;99983.97;1757026;79;21573;-65
2021/11/09 00:20:09;;;;;;;2.10;1.90;;;;;;;15.44;50.75;99986.31;1774653;79;21748;-65
2021/11/09 00:22:35;;;;;;;2.22;2.00;;;;;;;15.44;50.75;99983.64;1762477;79;21039;-66
2021/11/09 00:25:04;;;;;;;2.25;2.05;;;;;;;15.44;50.76;99982.81;1771795;79;21006;-66
2021/11/09 00:27:32;;;;;;;1.95;1.80;;;;;;;15.43;50.76;99984.67;1761090;79;21509;-67
2021/11/09 00:29:58;;;;;;;2.00;1.80;;;;;;;15.43;50.75;99987.35;1776156;79;21010;-65
2021/11/09 00:32:26;;;;;;;2.35;2.00;;;;;;;15.43;50.76;99993.20;1799327;79;21188;-65
2021/11/09 00:34:52;;;;;;;2.10;1.90;;;;;;;15.42;50.76;99983.01;1763488;79;21496;-67
2021/11/09 00:37:19;;;;;;;2.27;2.08;;;;;;;15.43;50.76;99990.03;1761559;79;21124;-67
2021/11/09 00:39:45;;;;;;;2.25;2.02;;;;;;;15.42;50.76;99995.05;1780745;79;21061;-65
2021/11/09 00:42:12;;;;;;;2.40;1.92;;;;;;;15.43;50.73;99999.89;1809040;79;21056;-67
2021/11/09 00:44:39;;;;;;;3.27;2.10;;;;;;;15.42;50.73;100005.77;1805404;79;21135;-65
2021/11/09 00:47:05;;;;;;;2.17;1.98;;;;;;;15.41;50.71;100004.09;1769742;79;21096;-65
2021/11/09 00:49:32;;;;;;;1.85;1.72;;;;;;;15.42;50.72;100004.94;1758800;79;21037;-65
2021/11/09 00:51:59;;;;;;;2.30;2.10;;;;;;;15.42;50.72;100010.30;1765533;79;21006;-66
2021/11/09 00:54:25;;;;;;;2.12;1.92;;;;;;;15.42;50.72;100007.62;1767243;79;21085;-67
2021/11/09 00:56:51;;;;;;;2.10;1.87;;;;;;;15.42;50.72;100011.63;1763737;79;21976;-67
2021/11/09 00:59:17;;;;;;;1.90;1.80;;;;;;;15.41;50.71;100008.11;1764626;79;21498;-66
2021/11/09 01:01:44;;;;;;;2.62;2.10;;;;;;;15.41;50.71;100003.27;1760273;80;21050;-66
2021/11/09 01:04:10;;;;;;;2.00;1.80;;;;;;;15.40;50.72;100001.63;1755937;79;20995;-66
2021/11/09 01:06:38;;;;;;;1.70;1.55;;;;;;;15.41;50.71;100009.96;1767380;78;21497;-66
2021/11/09 01:09:05;;;;;;;2.60;2.22;;;;;;;15.40;50.70;100014.50;1765860;79;22209;-66
2021/11/09 01:11:33;;;;;;;2.20;1.82;;;;;;;15.40;50.68;100014.50;1773470;79;21565;-67
2021/11/09 01:14:00;;;;;;;1.98;1.77;;;;;;;15.39;50.69;100014.16;1764194;79;21526;-65
2021/11/09 01:16:26;;;;;;;2.42;2.22;;;;;;;15.39;50.68;100010.67;1777420;79;21549;-66
2021/11/09 01:18:55;;;;;;;2.85;2.20;;;;;;;15.38;50.68;100013.86;1763646;79;21049;-67
2021/11/09 01:21:21;;;;;;;2.40;1.92;;;;;;;15.38;50.69;100015.72;1767883;79;23276;-66
2021/11/09 01:23:51;;;;;;;1.65;1.55;;;;;;;15.38;50.71;100020.55;1764068;79;21034;-67
2021/11/09 01:26:18;;;;;;;2.12;1.92;;;;;;;15.38;50.68;100023.23;1757463;79;20977;-67
2021/11/09 01:28:47;;;;;;;2.30;2.10;;;;;;;15.37;50.70;100028.77;1760528;79;21058;-65
2021/11/09 01:31:13;;;;;;;2.12;1.90;;;;;;;15.37;50.67;100028.25;1763626;79;21096;-66
2021/11/09 01:33:40;;;;;;;2.70;1.98;;;;;;;15.37;50.69;100041.64;1761998;79;21150;-66
2021/11/09 01:36:07;;;;;;;2.20;2.00;;;;;;;15.35;50.69;100035.65;1770732;79;21557;-65
2021/11/09 01:38:34;;;;;;;1.82;1.70;;;;;;;15.36;50.69;100037.84;1772273;79;21030;-66
2021/11/09 01:41:00;;;;;;;2.10;1.87;;;;;;;15.35;50.68;100045.02;1773657;79;21518;-66
2021/11/09 01:43:28;;;;;;;1.90;1.70;;;;;;;15.34;50.67;100044.72;1777833;79;21053;-66
2021/11/09 01:45:54;;;;;;;1.62;1.50;;;;;;;15.33;50.69;100049.22;1775141;79;21131;-66
2021/11/09 01:48:21;;;;;;;1.72;1.60;;;;;;;15.33;50.68;100043.87;1782846;79;21073;-66
2021/11/09 01:50:54;;;;;;;1.80;1.57;;;;;;;15.34;50.68;100044.72;1794744;79;21026;-65
2021/11/09 01:53:20;;;;;;;2.10;1.90;;;;;;;15.33;50.68;100047.88;1783615;78;21038;-67
2021/11/09 01:55:47;;;;;;;1.82;1.60;;;;;;;15.32;50.67;100049.44;1779795;79;21052;-66
2021/11/09 01:58:13;;;;;;;1.92;1.80;;;;;;;15.31;50.69;100045.91;1761569;79;23289;-66
2021/11/09 02:00:47;;;;;;;1.60;1.50;;;;;;;15.32;50.66;100046.77;1773881;79;21053;-66
2021/11/09 02:03:13;;;;;;;2.15;1.95;;;;;;;15.32;50.66;100050.77;1756880;79;21059;-67
2021/11/09 02:05:42;;;;;;;1.50;1.40;;;;;;;15.31;50.67;100047.77;1763786;79;21049;-67
2021/11/09 02:08:08;;;;;;;2.00;1.90;;;;;;;15.30;50.67;100063.52;1756995;79;20998;-67
2021/11/09 02:10:38;;;;;;;2.10;1.90;;;;;;;15.29;50.68;100059.99;1770552;79;21156;-65
2021/11/09 02:13:05;;;;;;;2.12;1.92;;;;;;;15.28;50.67;100061.55;1760338;79;21584;-66
2021/11/09 02:15:34;;;;;;;1.70;1.60;;;;;;;15.29;50.66;100068.55;1757305;79;21510;-66
2021/11/09 02:18:00;;;;;;;1.80;1.70;;;;;;;15.27;50.67;100067.39;1769336;79;21006;-66
2021/11/09 02:20:28;;;;;;;1.80;1.60;;;;;;;15.27;50.66;100074.08;1789712;78;21644;-66
2021/11/09 02:22:56;;;;;;;2.25;1.67;;;;;;;15.26;50.68;100083.14;1761307;79;22102;-67
2021/11/09 02:25:24;;;;;;;1.70;1.57;;;;;;;15.26;50.68;100075.11;1757005;79;21537;-66
2021/11/09 02:27:52;;;;;;;2.02;1.60;;;;;;;15.25;50.67;100077.45;1761089;79;21046;-65
2021/11/09 02:30:26;;;;;;;1.70;1.60;;;;;;;15.25;50.67;100074.78;1756556;79;21057;-66
2021/11/09 02:32:53;;;;;;;1.60;1.50;;;;;;;15.25;50.66;100076.12;1762322;80;21078;-65
2021/11/09 02:35:22;;;;;;;2.00;1.80;;;;;;;15.24;50.65;100087.86;1770965;79;21193;-67
2021/11/09 02:37:51;;;;;;;1.87;1.77;;;;;;;15.23;50.67;100088.86;1784320;79;21526;-65
2021/11/09 02:40:19;;;;;;;1.55;1.45;;;;;;;15.23;50.65;100092.06;1802485;78;21060;-66
2021/11/09 02:42:49;;;;;;;2.05;1.85;;;;;;;15.23;50.67;100106.27;1783607;78;21077;-65
2021/11/09 02:45:22;;;;;;;2.08;1.75;;;;;;;15.24;50.65;100104.41;1772501;78;21045;-65
2021/11/09 02:48:05;;;;;;;1.62;1.52;;;;;;;15.22;50.64;100110.46;1770121;78;21135;-66
2021/11/09 02:50:21;;;;;;;1.70;1.60;;;;;;;15.22;50.65;100112.65;1778377;78;21085;-65
2021/11/09 02:52:57;;;;;;;1.67;1.47;;;;;;;15.21;50.65;100112.31;1773096;78;21037;-66
2021/11/09 02:55:27;;;;;;;1.87;1.67;;;;;;;15.21;50.64;100118.19;1784050;78;21117;-66
2021/11/09 02:57:57;;;;;;;1.62;1.52;;;;;;;15.19;50.64;100117.55;1785227;79;21041;-66
2021/11/09 03:00:26;;;;;;;1.80;1.70;;;;;;;15.19;50.65;100116.20;1798692;78;20978;-66
2021/11/09 03:02:51;;;;;;;1.80;1.70;;;;;;;15.18;50.64;100115.36;1779039;78;21088;-66
2021/11/09 03:08:16;;;;;;;1.60;1.50;;;;;;;15.18;50.63;100118.55;1772656;78;21045;-66
2021/11/09 03:10:36;;;;;;;1.50;1.40;;;;;;;15.15;50.63;100121.10;1787013;78;20997;-66
2021/11/09 03:13:02;;;;;;;1.50;1.40;;;;;;;15.14;50.63;100120.28;1766393;78;21031;-66
2021/11/09 03:15:30;;;;;;;1.50;1.40;;;;;;;15.14;50.62;100130.13;1798028;78;20973;-65
2021/11/09 03:18:06;;;;;;;1.45;1.35;;;;;;;15.13;50.62;100135.18;1799145;78;21557;-66
2021/11/09 03:40:08;;;;;;;1.60;1.50;;;;;;;15.03;50.63;100144.03;1782827;80;21115;-66
2021/11/09 03:45:20;;;;;;;1.82;1.45;;;;;;;14.99;50.66;100147.58;1790221;78;21092;-65
2021/11/09 03:47:50;;;;;;;1.42;1.32;;;;;;;14.98;50.67;100152.59;1775901;78;21213;-66
2021/11/09 03:50:16;;;;;;;1.52;1.40;;;;;;;14.97;50.67;100161.66;1780681;78;21520;-66
2021/11/09 03:52:50;;;;;;;2.20;1.72;;;;;;;14.98;50.67;100161.14;1774019;78;21178;-65
2021/11/09 03:55:15;;;;;;;1.98;1.77;;;;;;;14.97;50.65;100159.46;1771100;78;21096;-65
2021/11/09 03:57:48;;;;;;;1.85;1.50;;;;;;;14.97;50.66;100158.98;1775548;78;21560;-65
2021/11/09 04:00:28;;;;;;;2.08;1.50;;;;;;;14.96;50.62;100168.00;1785629;78;21064;-66
2021/11/09 04:02:53;;;;;;;1.57;1.47;;;;;;;14.96;50.62;100172.02;1777938;78;21559;-66
2021/11/09 04:05:19;;;;;;;1.77;1.65;;;;;;;14.96;50.61;100174.69;1781732;78;21215;-65
2021/11/09 04:10:33;;;;;;;1.67;1.57;;;;;;;14.94;50.57;100176.73;1770747;78;21080;-66
2021/11/09 04:18:36;;;;;;;1.52;1.40;;;;;;;14.91;50.58;100183.77;1785873;78;21198;-66
2021/11/09 04:23:47;;;;;;;1.60;1.50;;;;;;;14.87;50.56;100191.36;1778539;78;22111;-65
2021/11/09 04:34:41;;;;;;;1.72;1.62;;;;;;;14.83;50.57;100211.44;1781970;78;21010;-66
2021/11/09 04:39:54;;;;;;;1.60;1.42;;;;;;;14.80;50.57;100211.83;1784636;79;21026;-65
2021/11/09 05:01:16;;;;;;;1.60;1.42;;;;;;;14.70;50.59;100230.00;1771599;79;21062;-67
2021/11/09 05:09:09;;;;;;;1.70;1.60;;;;;;;14.67;50.61;100241.05;1760055;79;21066;-65
2021/11/09 05:11:41;;;;;;;1.95;1.55;;;;;;;14.65;50.61;100243.90;1767688;79;21131;-66
2021/11/09 05:14:09;;;;;;;1.70;1.60;;;;;;;14.64;50.62;100252.09;1762678;79;21033;-66
2021/11/09 05:16:36;;;;;;;1.50;1.40;;;;;;;14.63;50.61;100255.28;1762096;79;21038;-65
2021/11/09 05:19:03;;;;;;;1.87;1.67;;;;;;;14.63;50.58;100261.97;1759928;79;21112;-66
2021/11/09 05:21:30;;;;;;;1.75;1.65;;;;;;;14.63;50.58;100268.66;1780553;79;21048;-66
2021/11/09 05:23:56;;;;;;;1.90;1.67;;;;;;;14.63;50.59;100277.19;1762340;79;21256;-65
2021/11/09 05:26:23;;;;;;;1.65;1.55;;;;;;;14.63;50.55;100283.88;1761020;79;21101;-66
2021/11/09 05:28:50;;;;;;;1.90;1.70;;;;;;;14.63;50.54;100284.70;1765404;80;21023;-66
2021/11/09 05:31:18;;;;;;;1.40;1.30;;;;;;;14.63;50.53;100283.36;1756910;79;21033;-67
2021/11/09 05:33:45;;;;;;;1.70;1.60;;;;;;;14.63;50.49;100287.89;1757075;79;21033;-66
2021/11/09 05:36:12;;;;;;;1.70;1.60;;;;;;;14.63;50.48;100298.06;1757976;79;21117;-66
2021/11/09 05:38:59;;;;;;;1.40;1.30;;;;;;;14.63;50.46;100301.26;1764796;79;21061;-67
2021/11/09 05:41:21;;;;;;;1.77;1.50;;;;;;;14.63;50.46;100298.58;1759715;79;21026;-66
2021/11/09 05:43:47;;;;;;;1.60;1.50;;;;;;;14.62;50.46;100304.45;1806538;79;21073;-67
2021/11/09 05:46:13;;;;;;;1.85;1.67;;;;;;;14.62;50.45;100306.27;1777186;78;21079;-65
2021/11/09 05:48:40;;;;;;;1.52;1.42;;;;;;;14.62;50.42;100312.95;1786834;80;21074;-66
2021/11/09 05:51:08;;;;;;;1.50;1.40;;;;;;;14.62;50.42;100313.80;1765869;79;21554;-66
2021/11/09 05:53:36;;;;;;;1.85;1.55;;;;;;;14.62;50.40;100321.83;1780839;79;21561;-66
2021/11/09 05:56:03;;;;;;;1.65;1.50;;;;;;;14.62;50.37;100320.48;1772208;79;21498;-66
2021/11/09 05:58:30;;;;;;;1.40;1.30;;;;;;;14.62;50.36;100322.31;1788232;79;21145;-67
2021/11/09 06:00:56;;;;;;;1.62;1.50;;;;;;;14.61;50.36;100329.50;1775763;79;21211;-66
2021/11/09 06:03:23;;;;;;;1.45;1.35;;;;;;;14.61;50.36;100334.86;1798342;79;21040;-65
2021/11/09 06:05:52;;;;;;;1.87;1.12;;;;;;;14.59;50.33;100343.56;1776890;79;21049;-66
2021/11/09 06:08:20;;;;;;;1.47;1.37;;;;;;;14.61;50.33;100343.39;1804699;79;21488;-66
2021/11/09 06:10:46;;;;;;;1.50;1.40;;;;;;;14.61;50.32;100348.73;1782071;79;22216;-66
2021/11/09 06:13:14;;;;;;;1.30;1.20;;;;;;;14.61;50.32;100360.77;1798947;79;21603;-66
2021/11/09 06:15:41;;;;;;;1.47;1.30;;;;;;;14.60;50.31;100365.27;1769352;79;22032;-66
2021/11/09 06:18:07;;;;;;;1.60;1.30;;;;;;;14.59;50.30;100371.64;1799402;79;21068;-66
2021/11/09 06:20:34;;;;;;;1.82;1.65;;;;;;;14.59;50.30;100371.64;1802633;79;21006;-66
2021/11/09 06:23:01;;;;;;;1.60;1.50;;;;;;;14.59;50.29;100380.17;1801433;79;21032;-66
2021/11/09 06:25:27;;;;;;;1.50;1.40;;;;;;;14.59;50.27;100381.51;1786261;79;22371;-67
2021/11/09 06:27:53;;;;;;;1.52;1.37;;;;;;;14.59;50.26;100386.86;1774845;79;21562;-67
2021/11/09 06:30:20;;;;;;;2.15;1.95;;;;;;;14.58;50.23;100387.34;1774200;79;20950;-66
2021/11/09 06:32:47;;;;;;;1.60;1.50;;;;;;;14.58;50.22;100391.34;1776382;80;21040;-66
2021/11/09 06:35:14;;;;;;;1.22;1.17;;;;;;;14.59;50.22;100393.55;1779758;79;21080;-67
2021/11/09 06:37:40;;;;;;;1.45;1.35;;;;;;;14.58;50.20;100394.02;1776754;79;21159;-67
2021/11/09 06:40:08;;;;;;;1.50;1.40;;;;;;;14.58;50.19;100394.54;1770157;79;21068;-69
2021/11/09 06:42:35;;;;;;;1.60;1.50;;;;;;;14.59;50.16;100392.20;1776178;79;21088;-68
2021/11/09 06:45:04;;;;;;;1.45;1.35;;;;;;;14.58;50.18;100404.72;1773395;79;21042;-67
2021/11/09 06:47:30;;;;;;;1.50;1.40;;;;;;;14.58;50.16;100403.38;1772231;78;21045;-65
2021/11/09 06:49:57;;;;;;;1.75;1.50;;;;;;;14.58;50.13;100406.05;1774830;79;21156;-66
2021/11/09 06:52:24;;;;;;;1.47;1.37;;;;;;;14.58;50.12;100412.74;1788742;79;20997;-67
2021/11/09 06:56:45;;;;;;;1.35;1.25;;;;;;;14.63;50.08;100414.39;1866257;76;28599;-67
2021/11/09 06:59:11;;;;;;;1.60;1.50;;;;;;;14.58;50.12;100424.77;1823978;77;21004;-67
2021/11/09 07:01:38;;;;;;;1.57;1.45;;;;;;;14.58;50.11;100424.77;1823156;78;21816;-67
2021/11/09 07:04:04;;;;;;;1.40;1.30;;;;;;;14.59;50.08;100419.77;1818329;78;20977;-66
2021/11/09 07:06:31;;;;;;;1.47;1.37;;;;;;;14.60;50.05;100424.09;1822696;78;21009;-68
2021/11/09 07:08:57;;;;;;;1.70;1.60;;;;;;;14.61;50.06;100441.81;1803563;78;21009;-66
2021/11/09 07:11:25;;;;;;;1.60;1.50;;;;;;;14.61;50.04;100440.47;1754609;80;20945;-67
2021/11/09 07:13:52;;;;;;;1.60;1.50;;;;;;;14.62;50.00;100449.32;1768820;80;21210;-69
2021/11/09 07:16:19;;;;;;;1.70;1.60;;;;;;;14.64;50.49;100445.48;1762633;79;20997;-68
2021/11/09 07:18:49;;;;;;;1.85;1.50;;;;;;;14.64;50.92;100448.16;1760539;80;21496;-66
2021/11/09 07:21:15;;;;;;;2.17;1.98;;;;;;;14.65;50.94;100451.14;1759338;78;21096;-68
2021/11/09 07:23:42;;;;;;;1.90;1.80;;;;;;;14.67;50.93;100458.48;1762358;78;21159;-67
2021/11/09 07:26:09;;;;;;;2.15;1.87;;;;;;;14.69;50.88;100460.47;1764252;78;21152;-67
2021/11/09 07:28:35;;;;;;;3.40;1.60;;;;;;;14.69;50.83;100460.47;1765130;78;21043;-66
2021/11/09 07:31:03;;;;;;;1.98;1.77;;;;;;;14.71;50.76;100473.67;1761402;78;21065;-67
2021/11/09 07:33:30;;;;;;;1.72;1.62;;;;;;;14.71;50.71;100474.49;1758626;78;21518;-66
2021/11/09 07:35:57;;;;;;;2.87;1.70;;;;;;;14.73;50.64;100480.50;1763518;78;21092;-67
2021/11/09 07:38:24;;;;;;;1.72;1.60;;;;;;;14.74;50.58;100478.67;1758926;78;21135;-66
2021/11/09 07:40:50;;;;;;;1.95;1.62;;;;;;;14.75;50.53;100479.81;1754471;78;21050;-67
2021/11/09 07:43:17;;;;;;;1.60;1.50;;;;;;;14.77;50.48;100481.49;1759202;78;21565;-66
2021/11/09 07:45:44;;;;;;;1.65;1.50;;;;;;;14.78;50.46;100477.30;1760468;78;21089;-65
2021/11/09 07:48:12;;;;;;;1.65;1.55;;;;;;;14.80;50.40;100481.15;1769505;78;21040;-64
2021/11/09 07:50:38;;;;;;;2.00;1.80;;;;;;;14.81;50.35;100486.30;1766369;79;21128;-65
2021/11/09 07:53:04;;;;;;;1.60;1.50;;;;;;;14.84;50.29;100485.13;1761150;78;21116;-66
2021/11/09 07:55:38;;;;;;;1.85;1.47;;;;;;;14.85;50.24;100494.28;1775646;80;21045;-67
2021/11/09 07:58:04;;;;;;;1.70;1.60;;;;;;;14.87;50.18;100495.45;1769039;80;21071;-68
2021/11/09 08:00:34;;;;;;;2.20;1.67;;;;;;;14.89;50.12;100498.78;1764414;81;21026;-69
2021/11/09 08:08:28;;;;;;;1.60;1.50;;;;;;;14.98;49.97;100517.78;1775949;78;21597;-64
2021/11/09 08:10:52;;;;;;;1.40;1.30;;;;;;;15.00;49.91;100522.97;1773671;79;21555;-65
2021/11/09 08:13:18;;;;;;;1.50;1.40;;;;;;;15.04;49.86;100525.61;1774672;78;22358;-66
2021/11/09 08:15:46;;;;;;;1.75;1.50;;;;;;;15.05;49.75;100526.78;1768681;79;21212;-65
2021/11/09 08:18:16;;;;;;;1.60;1.50;;;;;;;15.07;49.71;100526.09;1780376;78;21092;-66
2021/11/09 08:20:42;;;;;;;2.92;1.52;;;;;;;15.10;49.66;100535.11;1766187;78;21005;-67
2021/11/09 08:23:09;;;;;;;1.35;1.25;;;;;;;15.11;49.60;100539.44;1774727;78;21022;-66
2021/11/09 08:25:35;;;;;;;1.60;1.50;;;;;;;15.12;49.53;100542.94;1768641;78;21069;-66
2021/11/09 08:28:03;;;;;;;1.50;1.40;;;;;;;15.13;49.48;100546.78;1777825;78;21120;-67
2021/11/09 08:30:30;;;;;;;1.50;1.40;;;;;;;15.13;49.44;100554.81;1775356;80;21530;-66
2021/11/09 08:33:00;;;;;;;1.70;1.50;;;;;;;15.13;49.38;100557.48;1766754;78;21094;-67
2021/11/09 08:35:27;;;;;;;1.62;1.50;;;;;;;15.14;49.34;100562.33;1776465;78;21581;-68
2021/11/09 08:37:55;;;;;;;1.90;1.62;;;;;;;15.13;49.31;100555.33;1766883;78;21067;-68
2021/11/09 08:40:23;;;;;;;3.60;1.65;;;;;;;15.13;49.28;100558.00;1787846;80;21092;-68
2021/11/09 08:42:57;;;;;;;1.75;1.65;;;;;;;15.13;49.27;100567.37;1739899;80;21043;-64
2021/11/09 08:45:32;;;;;;;9.05;4.35;;;;;;;15.12;49.48;100576.39;1788262;78;21064;-67
2021/11/09 08:47:58;;;;;;;7.87;3.20;;;;;;;15.23;62.49;100580.52;1785734;80;21463;-62
2021/11/09 08:50:25;;;;;;;8.80;3.90;;;;;;;15.50;66.95;100568.42;1768676;78;21009;-64
2021/11/09 08:52:55;;;;;;;7.37;3.47;;;;;;;15.86;68.42;100574.52;1768714;80;21407;-62
2021/11/09 08:55:32;;;;;;;4.97;3.72;;;;;;;16.14;69.09;100569.34;1758994;81;21109;-64
2021/11/09 08:58:15;;;;;;;7.10;4.00;;;;;;;16.42;69.91;100574.08;1739021;81;21066;-64
2021/11/09 09:01:22;;;;;;;7.10;3.87;;;;;;;16.67;69.64;100577.28;1760183;80;21020;-67
2021/11/09 09:05:26;;;;;;;5.00;3.60;;;;;;;17.27;68.00;100588.72;1749104;79;21143;-63
2021/11/09 09:07:53;;;;;;;8.73;3.55;;;;;;;17.48;66.45;100586.52;1756253;79;21049;-62
2021/11/09 09:10:21;;;;;;;4.50;3.08;;;;;;;17.65;64.75;100594.66;1756021;79;21035;-64
2021/11/09 09:12:47;;;;;;;5.28;3.35;;;;;;;17.79;63.44;100596.08;1743649;79;21561;-63
2021/11/09 09:15:17;;;;;;;4.67;2.90;;;;;;;17.91;62.04;100605.84;1749374;79;21580;-67
2021/11/09 09:17:43;;;;;;;5.65;2.95;;;;;;;18.01;60.92;100603.11;1741532;79;21145;-68
2021/11/09 09:20:31;;;;;;;5.15;2.70;;;;;;;18.05;59.78;100604.90;1743328;79;21104;-68
2021/11/09 09:23:05;;;;;;;5.40;3.17;;;;;;;18.03;58.92;100609.64;1739936;79;21077;-68
2021/11/09 09:30:35;;;;;;;4.62;2.92;;;;;;;17.82;57.81;100615.86;1758015;79;21139;-68
2021/11/09 09:33:08;;;;;;;4.83;3.08;;;;;;;17.75;57.64;100617.65;1800364;78;21069;-69
2021/11/09 09:57:11;;;;;;;3.85;2.65;;;;;;;17.42;55.25;100648.58;1812854;78;20986;-70
2021/11/09 09:59:41;;;;;;;3.62;2.58;;;;;;;17.39;55.03;100652.15;1817315;78;21000;-69
2021/11/09 10:02:24;;;;;;;3.15;2.50;;;;;;;17.36;54.80;100647.14;1813635;78;21045;-69
2021/11/09 10:04:54;;;;;;;3.45;2.45;;;;;;;17.33;54.61;100651.05;1817649;78;21029;-70
2021/11/09 10:07:40;;;;;;;4.03;2.40;;;;;;;17.30;54.43;100659.48;1809495;78;21466;-69
2021/11/09 10:10:18;;;;;;;4.05;2.50;;;;;;;17.29;54.24;100657.31;1801861;78;21105;-70
2021/11/09 10:13:00;;;;;;;2.62;2.35;;;;;;;17.30;54.05;100667.02;1821544;78;21021;-69
2021/11/09 10:15:29;;;;;;;;;;;;;;;17.34;53.87;100666.66;1810594;78;21082;-69
2021/11/09 10:18:03;;;;;;;3.75;2.37;;;;;;;17.36;53.68;100667.29;1821745;78;20159;-68
2021/11/09 10:20:36;;;;;;;3.27;2.40;;;;;;;17.34;53.56;100656.73;1804759;77;21484;-70
2021/11/09 10:23:06;;;;;;;2.58;2.37;;;;;;;17.36;53.34;100663.27;1812331;78;21154;-69
2021/11/09 10:25:33;;;;;;;3.83;2.60;;;;;;;17.37;53.16;100666.28;1815667;78;21568;-69
2021/11/09 10:28:04;;;;;;;4.78;2.22;;;;;;;17.37;52.96;100668.97;1799398;78;21094;-69
2021/11/09 10:30:38;;;;;;;3.20;2.72;;;;;;;17.36;52.80;100664.08;1814407;78;22167;-68
2021/11/09 10:33:05;;;;;;;3.47;2.35;;;;;;;17.39;52.59;100658.87;1824925;78;21557;-69
2021/11/09 10:35:32;;;;;;;2.42;2.02;;;;;;;17.42;52.42;100655.29;1823234;78;21129;-69
2021/11/09 10:38:04;;;;;;;2.45;2.25;;;;;;;17.49;52.32;100663.41;1825414;78;21064;-68
2021/11/09 10:40:33;;;;;;;3.77;2.45;;;;;;;17.56;52.20;100663.45;1811200;78;21052;-68
2021/11/09 10:43:04;;;;;;;3.50;2.50;;;;;;;17.64;52.01;100666.86;1746949;81;21080;-69
2021/11/09 10:45:35;;;;;;;3.95;2.45;;;;;;;17.73;51.80;100655.98;1737891;82;21599;-68
2021/11/09 10:48:06;;;;;;;3.35;2.20;;;;;;;17.83;51.65;100660.02;1766871;80;21120;-69
2021/11/09 10:50:39;;;;;;;3.05;2.55;;;;;;;17.93;51.50;100662.92;1769658;80;21093;-67
2021/11/09 10:53:18;;;;;;;2.70;2.20;;;;;;;18.02;51.28;100665.28;1767604;80;21045;-68
2021/11/09 10:59:09;;;;;;;2.60;2.40;;;;;;;18.23;51.03;100671.13;1752579;81;21051;-68
2021/11/09 11:04:10;;;;;;;2.65;1.90;;;;;;;18.46;50.71;100676.23;1755193;81;21489;-69
2021/11/09 11:06:42;;;;;;;4.05;2.30;;;;;;;18.57;50.49;100678.07;1749489;81;21578;-61
2021/11/09 11:09:17;;;;;;;5.87;2.35;;;;;;;18.66;50.39;100640.56;1758166;80;21085;-60
2021/11/09 11:11:50;;;;;;;4.08;2.42;;;;;;;18.80;55.66;100640.95;1759667;80;20970;-60
2021/11/09 11:14:26;;;;;;;3.35;2.30;;;;;;;19.03;57.65;100655.44;1752298;80;21127;-61
2021/11/09 11:17:00;;;;;;;4.20;2.30;;;;;;;19.28;58.10;100647.33;1755278;80;21026;-61
2021/11/09 11:19:46;;;;;;;5.42;2.27;;;;;;;19.51;58.10;100652.34;1761432;80;22089;-60
2021/11/09 11:22:20;;;;;;;3.22;2.12;;;;;;;19.72;57.91;100632.02;1758545;80;21085;-62
2021/11/09 11:24:52;;;;;;;2.67;2.05;;;;;;;19.93;57.25;100654.39;1752940;80;21104;-64
2021/11/09 11:27:18;;;;;;;3.65;2.25;;;;;;;20.03;56.09;100648.91;1760316;80;21085;-62
2021/11/09 11:29:45;;;;;;;2.80;1.87;;;;;;;20.12;54.99;100663.00;1749274;80;21066;-62
2021/11/09 11:32:16;;;;;;;3.65;1.87;;;;;;;20.18;54.13;100666.73;1760703;80;21024;-63
2021/11/09 11:34:43;;;;;;;3.65;2.20;;;;;;;20.21;53.51;100667.15;1753677;80;21043;-63
2021/11/09 11:37:12;;;;;;;2.15;1.95;;;;;;;20.21;53.01;100667.15;1766139;80;21557;-64
2021/11/09 11:39:40;;;;;;;3.45;2.02;;;;;;;20.23;52.83;100679.09;1757800;80;21490;-64
2021/11/09 11:42:11;;;;;;;3.87;2.20;;;;;;;20.25;52.54;100677.53;1755106;80;21100;-64
2021/11/09 11:44:41;;;;;;;2.98;1.77;;;;;;;20.26;52.32;100683.22;1763070;80;21049;-63
2021/11/09 11:47:18;;;;;;;1.90;1.75;;;;;;;20.26;52.19;100668.38;1762452;80;21041;-63
2021/11/09 11:49:53;;;;;;;3.35;1.98;;;;;;;20.27;52.00;100674.11;1765654;80;21093;-64
2021/11/09 11:52:31;;;;;;;2.77;1.65;;;;;;;20.30;51.61;100673.66;1758854;80;21780;-66
2021/11/09 11:55:06;;;;;;;2.80;1.98;;;;;;;20.35;51.28;100681.98;1768429;80;21013;-65
2021/11/09 11:57:44;;;;;;;2.98;2.08;;;;;;;20.44;51.13;100690.17;1746580;80;21093;-65
2021/11/09 12:00:39;;;;;;;2.77;1.87;;;;;;;20.54;51.07;100691.08;1759538;80;21022;-66
2021/11/09 12:03:27;;;;;;;2.67;1.87;;;;;;;20.64;51.05;100685.28;1746855;81;21040;-65
2021/11/09 12:05:57;;;;;;;4.40;2.20;;;;;;;20.79;50.98;100685.33;1772637;80;21012;-65
2021/11/09 12:08:40;;;;;;;3.60;2.10;;;;;;;20.93;50.69;100697.45;1780785;79;21095;-67
2021/11/09 12:11:09;;;;;;;3.87;1.77;;;;;;;21.03;50.26;100696.99;1779070;79;21024;-66
2021/11/09 12:14:00;;;;;;;2.27;1.80;;;;;;;21.20;49.73;100703.56;1768309;79;21050;-66
2021/11/09 12:16:52;;;;;;;2.85;2.05;;;;;;;21.34;49.21;100707.03;1777622;78;21072;-67
2021/11/09 12:19:44;;;;;;;2.47;2.02;;;;;;;21.54;48.60;100716.44;1782635;78;21142;-66
2021/11/09 12:22:13;;;;;;;1.98;1.72;;;;;;;21.78;47.81;100720.23;1753226;80;21096;-67
2021/11/09 12:24:59;;;;;;;2.80;1.70;;;;;;;21.99;47.25;100726.62;1758510;81;21043;-67
2021/11/09 12:27:30;;;;;;;2.27;1.80;;;;;;;22.08;46.77;100721.78;1748160;81;21578;-68
2021/11/09 12:29:58;;;;;;;2.15;1.70;;;;;;;22.17;46.38;100735.86;1749000;81;21053;-67
2021/11/09 12:32:34;;;;;;;2.08;1.87;;;;;;;22.30;45.96;100743.08;1753106;80;21131;-67
2021/11/09 12:35:23;;;;;;;2.55;1.50;;;;;;;22.38;45.81;100746.86;1766161;79;21088;-66
2021/11/09 12:38:04;;;;;;;1.90;1.70;;;;;;;22.36;45.70;100747.06;1770728;78;21536;-67
2021/11/09 12:40:46;;;;;;;2.05;1.72;;;;;;;22.27;45.57;100742.16;1778007;78;21106;-66
2021/11/09 12:43:22;;;;;;;1.77;1.67;;;;;;;22.17;45.59;100750.73;1777167;80;20998;-65
2021/11/09 12:45:56;;;;;;;1.57;1.47;;;;;;;22.04;45.66;100744.92;1777114;78;21160;-66
2021/11/09 12:48:28;;;;;;;1.37;1.27;;;;;;;21.93;45.76;100767.27;1767247;81;21538;-66
2021/11/09 12:51:07;;;;;;;1.53;1.43;;;;;;;21.82;45.82;100766.60;1758841;81;21071;-66
2021/11/09 12:53:38;;;;;;;1.98;1.77;;;;;;;21.70;45.85;100777.28;1751520;80;21039;-66
2021/11/09 12:56:14;;;;;;;1.60;1.50;;;;;;;21.57;45.93;100771.41;1753890;80;21060;-66
2021/11/09 12:59:04;;;;;;;2.33;1.67;;;;;;;21.46;46.02;100776.98;1766386;79;21172;-66
2021/11/09 13:04:19;;;;;;;1.72;1.50;;;;;;;21.25;46.17;100795.64;1797914;78;21481;-68
2021/11/09 13:06:55;;;;;;;1.98;1.60;;;;;;;21.14;46.31;100801.17;1801861;78;20994;-65
2021/11/09 13:09:22;;;;;;;2.22;1.60;;;;;;;21.05;46.42;100800.25;1795236;79;21030;-66
2021/11/09 13:11:57;;;;;;;1.98;1.67;;;;;;;20.96;46.29;100805.89;1800774;77;21098;-65
2021/11/09 13:14:46;;;;;;;1.75;1.65;;;;;;;20.87;46.28;100810.37;1799921;79;21572;-67
2021/11/09 13:17:23;;;;;;;1.77;1.60;;;;;;;20.79;46.35;100816.83;1799383;78;22137;-66
2021/11/09 13:20:24;;;;;;;1.45;1.35;;;;;;;20.69;46.46;100830.75;1807581;77;21009;-66
2021/11/09 13:22:59;;;;;;;2.02;1.70;;;;;;;20.61;46.57;100830.97;1798697;77;21091;-65
2021/11/09 13:25:38;;;;;;;3.17;1.70;;;;;;;20.50;46.58;100831.02;1760961;80;21806;-65
2021/11/09 13:28:17;;;;;;;2.40;2.08;;;;;;;20.39;46.71;100831.63;1803037;77;21029;-66
2021/11/09 13:30:50;;;;;;;1.80;1.57;;;;;;;20.29;46.78;100839.31;1811877;77;21005;-66
2021/11/09 13:33:16;;;;;;;2.58;1.50;;;;;;;20.18;46.95;100840.20;1798163;77;29267;-66
2021/11/09 13:35:44;;;;;;;1.77;1.65;;;;;;;20.10;47.09;100850.37;1755065;79;21054;-65